KCTJ

West Georgia Regional - O V Gray Field Airport

Carrollton, Georgia, USA
METAR KCTJ 222035Z AUTO 20003KT 10SM CLR 18/03 A3026 RMK AO2 T01810029
Observed Flight Rules
Oct-22 @ 20:35 UTC (20 minutes ago) Visual Flight Rules
Wind Visibility Clouds
200° at 3 knots 10 miles
  • Clear skies
Temperatures Readings
Current 18°C / 64°F
Dewpoint 3°C / 37°F
Humidity 37%
Altimeter 30.26" Hg
Pressure 1025 hPa
Elevation 354
METAR KCTJ 222035Z AUTO 20003KT 10SM CLR 18/03 A3026 RMK AO2 T01810029
Observed Flight Rules
Oct-22 @ 20:35 UTC
(20 minutes ago)
VFR
Wind Visibility
200° at 3 knots 10 miles
Clouds
  • Clear skies
Temperature Dewpoint
18°C / 64°F 3°C / 37°F
Humidity Altimeter Pressure
37% 30.26" Hg 1025 hPa